Time;durP1;ratioP1;P1;durP2;ratioP2;P2;SDS_P1;SDS_P2;PMS_P1;PMS_P2;Temp;Humidity;BMP_temperature;BMP_pressure;BME280_temperature;BME280_humidity;BME280_pressure;Samples;Min_cycle;Max_cycle;Signal;HPM_P1;HPM_P2
2022/09/27 00:00:45;;;;;;;1.20;0.50;;;;;;;9.01;100.00;99725.25;5047572;28;20507;-83
2022/09/27 00:03:12;;;;;;;3.97;0.50;;;;;;;8.98;100.00;99734.09;5033501;28;20169;-83
2022/09/27 00:05:40;;;;;;;3.15;0.73;;;;;;;8.98;100.00;99733.38;5047926;28;20046;-83
2022/09/27 00:08:06;;;;;;;8.05;0.57;;;;;;;8.97;100.00;99737.94;5031744;28;20550;-83
2022/09/27 00:10:33;;;;;;;3.22;0.40;;;;;;;8.99;100.00;99734.84;5032507;28;20130;-83
2022/09/27 00:12:59;;;;;;;1.85;0.60;;;;;;;8.94;100.00;99741.50;5048229;28;20077;-82
2022/09/27 00:15:26;;;;;;;1.05;0.38;;;;;;;8.94;100.00;99738.84;5047541;28;20052;-82
2022/09/27 00:17:53;;;;;;;4.07;0.82;;;;;;;8.95;100.00;99737.66;5032859;28;20042;-82
2022/09/27 00:20:20;;;;;;;2.30;0.43;;;;;;;8.94;100.00;99746.06;5031890;28;20521;-83
2022/09/27 00:22:47;;;;;;;2.13;0.52;;;;;;;8.91;100.00;99739.75;5032836;28;20475;-83
2022/09/27 00:25:14;;;;;;;1.88;0.45;;;;;;;8.91;100.00;99739.00;5048298;28;20077;-82
2022/09/27 00:27:41;;;;;;;1.15;0.47;;;;;;;8.90;100.00;99740.94;5014221;28;20042;-82
2022/09/27 00:30:09;;;;;;;2.83;0.55;;;;;;;8.88;100.00;99732.69;5048027;28;20052;-83
2022/09/27 00:32:35;;;;;;;3.30;0.50;;;;;;;8.87;100.00;99736.53;5032187;28;20050;-83
2022/09/27 00:35:02;;;;;;;2.58;0.30;;;;;;;8.84;100.00;99732.13;5033194;28;20226;-82
2022/09/27 00:37:29;;;;;;;1.98;0.35;;;;;;;8.84;100.00;99742.00;5032491;28;20045;-83
2022/09/27 00:39:55;;;;;;;2.55;0.60;;;;;;;8.82;100.00;99737.13;5047918;28;20050;-83
2022/09/27 00:42:22;;;;;;;0.50;0.30;;;;;;;8.79;100.00;99729.38;5032478;28;20045;-83
2022/09/27 00:45:11;;;;;;;5.80;1.00;;;;;;;8.78;100.00;99730.56;5046652;28;20042;-83
2022/09/27 00:48:04;;;;;;;2.67;0.90;;;;;;;8.76;100.00;99728.34;5032570;28;20042;-83
2022/09/27 00:50:38;;;;;;;3.45;0.52;;;;;;;8.75;100.00;99740.16;5030440;28;20140;-83
2022/09/27 00:53:11;;;;;;;2.42;0.30;;;;;;;8.73;100.00;99733.81;5033237;28;20117;-83
2022/09/27 00:55:43;;;;;;;1.40;0.30;;;;;;;8.69;100.00;99731.34;5032614;28;20042;-83
2022/09/27 00:58:14;;;;;;;3.00;0.55;;;;;;;8.68;100.00;99735.19;5031442;28;20494;-83
2022/09/27 01:00:44;;;;;;;4.57;0.43;;;;;;;8.66;100.00;99726.94;5013719;28;20555;-83
2022/09/27 01:03:20;;;;;;;5.15;0.50;;;;;;;8.63;100.00;99741.81;5047896;28;20054;-83
2022/09/27 01:05:47;;;;;;;2.03;0.40;;;;;;;8.60;100.00;99747.28;5031126;28;20109;-83
2022/09/27 01:08:14;;;;;;;1.23;0.43;;;;;;;8.58;100.00;99744.34;5034889;28;20054;-83
2022/09/27 01:10:57;;;;;;;3.00;0.30;;;;;;;8.53;100.00;99753.66;5050180;28;20069;-83
2022/09/27 01:13:34;;;;;;;0.93;0.30;;;;;;;8.51;100.00;99752.63;5033451;28;20506;-83
2022/09/27 01:16:05;;;;;;;3.75;0.30;;;;;;;8.48;100.00;99751.59;5034751;28;20491;-83
2022/09/27 01:19:01;;;;;;;1.77;0.20;;;;;;;8.48;100.00;99748.22;5033611;28;20555;-83
2022/09/27 01:21:44;;;;;;;6.47;0.40;;;;;;;8.44;100.00;99758.97;5033772;28;20116;-83
2022/09/27 01:24:45;;;;;;;1.90;0.40;;;;;;;8.41;100.00;99767.84;5034054;28;20522;-83
2022/09/27 01:27:36;;;;;;;4.03;0.55;;;;;;;8.40;100.00;99766.38;5052070;28;20095;-83
2022/09/27 01:30:13;;;;;;;1.33;0.65;;;;;;;8.39;100.00;99769.50;5050371;28;20104;-83
2022/09/27 01:33:00;;;;;;;2.40;0.40;;;;;;;8.37;100.00;99769.94;5033876;28;20104;-83
2022/09/27 01:35:50;;;;;;;4.10;0.47;;;;;;;8.33;100.00;99772.00;5051793;28;20045;-83
2022/09/27 01:38:28;;;;;;;0.63;0.30;;;;;;;8.31;100.00;99769.03;5024117;28;20057;-83
2022/09/27 01:41:09;;;;;;;6.57;0.55;;;;;;;8.29;100.00;99774.78;5033397;28;20099;-83
2022/09/27 01:44:11;;;;;;;0.93;0.50;;;;;;;8.29;100.00;99777.44;5049972;28;20054;-83
2022/09/27 01:46:54;;;;;;;2.60;0.50;;;;;;;8.29;100.00;99771.41;5049994;28;20045;-83
2022/09/27 01:49:45;;;;;;;2.42;0.50;;;;;;;8.29;100.00;99774.78;5033129;28;20512;-84
2022/09/27 01:52:18;;;;;;;6.47;0.50;;;;;;;8.31;100.00;99774.34;5033706;28;20045;-83
2022/09/27 01:54:52;;;;;;;2.00;0.47;;;;;;;8.32;100.00;99775.81;5050003;28;20049;-83
2022/09/27 01:57:34;;;;;;;2.10;0.40;;;;;;;8.33;100.00;99777.31;5051622;28;20111;-83
2022/09/27 02:00:07;;;;;;;3.60;0.30;;;;;;;8.31;100.00;99769.78;5021381;28;20053;-83
2022/09/27 02:02:46;;;;;;;2.10;0.45;;;;;;;8.30;100.00;99770.94;5036090;28;20520;-82
2022/09/27 02:05:34;;;;;;;2.35;0.50;;;;;;;8.29;100.00;99764.19;5054551;28;20048;-83
2022/09/27 02:08:38;;;;;;;0.73;0.50;;;;;;;8.28;100.00;99765.38;5022588;28;20139;-83
2022/09/27 02:11:13;;;;;;;4.28;0.60;;;;;;;8.27;100.00;99760.50;5036873;28;20110;-83
2022/09/27 02:13:55;;;;;;;1.95;0.70;;;;;;;8.27;100.00;99758.59;5021149;28;20049;-83
2022/09/27 02:16:53;;;;;;;3.63;0.52;;;;;;;8.26;100.00;99759.03;5045651;28;20054;-83
2022/09/27 02:19:34;;;;;;;2.17;0.40;;;;;;;8.25;100.00;99757.56;5054915;28;20044;-83
2022/09/27 02:22:17;;;;;;;2.38;0.63;;;;;;;8.24;100.00;99756.81;5054964;28;20061;-83
2022/09/27 02:24:53;;;;;;;3.30;0.63;;;;;;;8.24;100.00;99764.78;5036327;28;20057;-83
2022/09/27 02:27:24;;;;;;;1.25;0.30;;;;;;;8.22;100.00;99759.19;5052802;28;20038;-82
2022/09/27 02:30:12;;;;;;;2.55;0.50;;;;;;;8.23;100.00;99754.63;5036611;28;20552;-83
2022/09/27 02:32:42;;;;;;;2.78;0.65;;;;;;;8.21;100.00;99751.69;5035677;28;20042;-83
2022/09/27 02:35:18;;;;;;;2.83;0.70;;;;;;;8.20;100.00;99758.16;5036632;28;20137;-84
2022/09/27 02:37:46;;;;;;;9.82;0.60;;;;;;;8.19;100.00;99748.75;5053021;28;20053;-83
2022/09/27 02:40:13;;;;;;;2.33;0.52;;;;;;;8.18;100.00;99755.22;5036892;28;20052;-83
2022/09/27 02:42:42;;;;;;;2.40;0.50;;;;;;;8.15;100.00;99754.19;5051989;28;20141;-83
2022/09/27 02:45:11;;;;;;;6.57;0.55;;;;;;;8.13;100.00;99753.91;5036515;28;20053;-84
2022/09/27 02:48:02;;;;;;;5.55;0.68;;;;;;;8.13;100.00;99745.94;5053822;28;20104;-82
2022/09/27 02:50:56;;;;;;;8.07;0.80;;;;;;;8.12;100.00;99749.03;5036037;28;20403;-83
2022/09/27 02:54:03;;;;;;;1.33;0.60;;;;;;;8.08;100.00;99749.19;5052223;28;20046;-83
2022/09/27 02:57:13;;;;;;;2.88;0.60;;;;;;;8.02;100.00;99751.72;5016078;28;20045;-83
2022/09/27 03:00:08;;;;;;;2.42;0.68;;;;;;;7.98;100.00;99750.41;5053589;28;20049;-84
2022/09/27 03:02:52;;;;;;;4.28;0.60;;;;;;;7.95;100.00;99757.34;5035699;28;20053;-83
2022/09/27 03:05:44;;;;;;;8.90;0.75;;;;;;;7.93;100.00;99748.38;5049272;28;20057;-83
2022/09/27 03:08:12;;;;;;;6.03;1.00;;;;;;;7.91;100.00;99751.47;5031348;28;20561;-83
2022/09/27 03:10:39;;;;;;;8.13;0.90;;;;;;;7.91;100.00;99753.38;5032920;28;20044;-83
2022/09/27 03:13:06;;;;;;;4.20;0.68;;;;;;;7.90;100.00;99746.59;5032622;28;20510;-83
2022/09/27 03:15:32;;;;;;;1.48;0.80;;;;;;;7.87;100.00;99750.88;5015637;28;20060;-83
2022/09/27 03:17:59;;;;;;;2.28;0.90;;;;;;;7.87;100.00;99750.13;5033013;28;20090;-83
2022/09/27 03:20:45;;;;;;;2.60;0.52;;;;;;;7.87;100.00;99742.19;5032777;28;20058;-83
2022/09/27 03:23:19;;;;;;;2.55;0.70;;;;;;;7.86;100.00;99743.38;5017056;28;20467;-83
2022/09/27 03:25:47;;;;;;;4.05;0.57;;;;;;;7.86;100.00;99740.72;5015817;28;20485;-83
2022/09/27 03:28:14;;;;;;;6.43;0.88;;;;;;;7.86;100.00;99744.09;5032518;28;20057;-82
2022/09/27 03:30:44;;;;;;;2.30;0.80;;;;;;;7.86;100.00;99746.00;5015791;28;20053;-82
2022/09/27 03:33:13;;;;;;;6.40;1.20;;;;;;;7.88;100.00;99741.00;5048524;28;20057;-83
2022/09/27 03:35:44;;;;;;;3.83;1.05;;;;;;;7.89;100.00;99745.13;5033510;28;20043;-83
2022/09/27 03:38:12;;;;;;;4.88;1.00;;;;;;;7.87;100.00;99748.22;5032507;28;20050;-82
2022/09/27 03:40:39;;;;;;;5.40;0.80;;;;;;;7.88;100.00;99748.97;5031526;28;20085;-83
2022/09/27 03:43:06;;;;;;;9.32;0.65;;;;;;;7.88;100.00;99748.97;5032341;28;20049;-82
2022/09/27 03:45:33;;;;;;;2.17;0.60;;;;;;;7.86;100.00;99751.31;5031887;28;20134;-82
2022/09/27 03:48:05;;;;;;;3.83;0.68;;;;;;;7.86;100.00;99756.63;5032313;28;20042;-82
2022/09/27 03:50:33;;;;;;;3.10;0.80;;;;;;;7.84;100.00;99754.41;5031799;28;20050;-83
2022/09/27 03:52:59;;;;;;;1.50;0.70;;;;;;;7.85;100.00;99755.88;5015189;28;20514;-83
2022/09/27 03:55:26;;;;;;;3.22;0.80;;;;;;;7.84;100.00;99762.34;5031557;28;20050;-82
2022/09/27 03:57:52;;;;;;;2.35;0.63;;;;;;;7.83;100.00;99749.56;5033350;28;20041;-82
2022/09/27 04:00:20;;;;;;;4.07;1.05;;;;;;;7.82;100.00;99758.69;5048316;28;20073;-83
2022/09/27 04:02:47;;;;;;;3.30;1.30;;;;;;;7.80;100.00;99761.03;5032014;28;20129;-83
2022/09/27 04:05:27;;;;;;;2.38;1.00;;;;;;;7.78;100.00;99758.81;5031552;28;20164;-83
2022/09/27 04:07:57;;;;;;;3.95;0.60;;;;;;;7.74;100.00;99752.94;5031253;28;20074;-83
2022/09/27 04:10:24;;;;;;;4.78;0.88;;;;;;;7.72;100.00;99765.16;5047824;28;20101;-83
2022/09/27 04:12:51;;;;;;;7.18;0.85;;;;;;;7.70;100.00;99757.66;5031610;28;20057;-83
2022/09/27 04:15:20;;;;;;;6.65;1.13;;;;;;;7.68;100.00;99771.34;5031547;28;20053;-83
2022/09/27 04:17:50;;;;;;;4.72;0.95;;;;;;;7.69;100.00;99772.81;5032634;28;20054;-83
2022/09/27 04:20:32;;;;;;;;;;;;;;;7.71;100.00;99772.38;5031954;28;20053;-83
2022/09/27 04:23:02;;;;;;;2.42;0.75;;;;;;;7.69;100.00;99764.88;5032840;28;19925;-82
2022/09/27 04:25:31;;;;;;;1.27;0.65;;;;;;;7.70;100.00;99762.94;5047767;28;20104;-81
2022/09/27 04:28:06;;;;;;;4.32;0.80;;;;;;;7.68;100.00;99755.44;5031462;28;20046;-82
2022/09/27 04:30:33;;;;;;;7.13;1.20;;;;;;;7.68;100.00;99757.34;5030952;28;20137;-82
2022/09/27 04:33:23;;;;;;;9.63;1.05;;;;;;;7.67;100.00;99767.22;5031383;28;20042;-82
2022/09/27 04:39:09;;;;;;;5.47;0.98;;;;;;;7.63;100.00;99763.97;5032422;28;20082;-82
2022/09/27 04:41:38;;;;;;;3.80;0.50;;;;;;;7.63;100.00;99766.63;5014566;28;20050;-82
2022/09/27 04:44:05;;;;;;;4.53;0.98;;;;;;;7.61;100.00;99763.69;5047663;28;20056;-82
2022/09/27 04:46:33;;;;;;;3.15;0.80;;;;;;;7.59;100.00;99766.06;5047584;28;20485;-82
2022/09/27 04:49:00;;;;;;;5.07;0.93;;;;;;;7.59;100.00;99771.38;5031409;28;20049;-82
2022/09/27 04:51:28;;;;;;;7.72;0.80;;;;;;;7.59;100.00;99774.00;5030552;28;20061;-82
2022/09/27 04:53:57;;;;;;;1.00;0.68;;;;;;;7.58;100.00;99775.19;5014970;28;20109;-83
2022/09/27 04:56:32;;;;;;;7.45;1.13;;;;;;;7.57;100.00;99770.31;5030715;28;20053;-82
2022/09/27 04:59:01;;;;;;;4.53;1.05;;;;;;;7.56;100.00;99780.19;5047903;28;20057;-83
2022/09/27 05:01:29;;;;;;;4.93;0.73;;;;;;;7.55;100.00;99781.38;5032177;28;20108;-82
2022/09/27 05:04:22;;;;;;;5.15;0.73;;;;;;;7.53;100.00;99777.69;5014438;28;20124;-82
2022/09/27 05:06:51;;;;;;;4.07;0.80;;;;;;;7.53;100.00;99777.69;5045545;28;20057;-83
2022/09/27 05:09:34;;;;;;;1.83;0.80;;;;;;;7.52;100.00;99776.22;5030115;28;20088;-82
2022/09/27 05:12:01;;;;;;;4.20;0.70;;;;;;;7.51;100.00;99775.47;5014288;28;20183;-82
2022/09/27 05:14:52;;;;;;;3.92;0.80;;;;;;;7.52;100.00;99782.25;5043891;28;20080;-82
2022/09/27 05:17:57;;;;;;;;;;;;;;;7.52;100.00;99776.94;5031697;28;20488;-82
2022/09/27 05:20:44;;;;;;;1.77;0.68;;;;;;;7.56;100.00;99776.81;5030578;28;19931;-82
2022/09/27 05:23:21;;;;;;;2.63;0.75;;;;;;;7.57;100.00;99786.22;5046986;28;20054;-81
2022/09/27 05:25:48;;;;;;;5.25;0.73;;;;;;;7.60;100.00;99795.91;5014073;28;20107;-81
2022/09/27 05:28:14;;;;;;;2.83;0.80;;;;;;;7.60;100.00;99790.59;5047372;28;20093;-81
2022/09/27 05:30:41;;;;;;;4.28;1.08;;;;;;;7.60;100.00;99783.41;5034572;28;20087;-81
2022/09/27 05:33:13;;;;;;;3.40;0.90;;;;;;;7.60;100.00;99783.41;5021685;28;20081;-81
2022/09/27 05:35:56;;;;;;;6.50;0.80;;;;;;;7.59;100.00;99781.97;5051952;28;20053;-82
2022/09/27 05:38:27;;;;;;;3.75;1.00;;;;;;;7.57;100.00;99784.31;5036721;28;20168;-82
2022/09/27 05:40:56;;;;;;;4.72;1.02;;;;;;;7.58;100.00;99779.75;5037111;28;20081;-82
2022/09/27 05:43:24;;;;;;;6.97;1.20;;;;;;;7.58;100.00;99791.09;5053121;28;20054;-82
2022/09/27 05:45:51;;;;;;;6.47;0.93;;;;;;;7.60;100.00;99785.31;5053415;28;20108;-82
2022/09/27 05:48:21;;;;;;;2.70;0.95;;;;;;;7.62;100.00;99785.59;5053319;28;20145;-82
2022/09/27 05:51:05;;;;;;;3.10;0.98;;;;;;;7.67;100.00;99795.63;5036737;28;20056;-82
2022/09/27 05:53:35;;;;;;;4.15;0.73;;;;;;;7.71;100.00;99793.56;5036095;28;20057;-82
2022/09/27 05:56:05;;;;;;;3.97;1.00;;;;;;;7.74;100.00;99795.31;5036928;28;20046;-82
2022/09/27 05:58:51;;;;;;;4.38;0.88;;;;;;;7.79;100.00;99799.31;5038017;28;20573;-82
2022/09/27 06:01:18;;;;;;;2.75;1.00;;;;;;;7.81;100.00;99797.69;5020455;28;20060;-82
2022/09/27 06:04:04;;;;;;;5.13;1.38;;;;;;;7.87;100.00;99808.44;5036240;28;20526;-83
2022/09/27 06:06:51;;;;;;;5.93;0.98;;;;;;;7.88;100.00;99797.41;5022159;28;20589;-83
2022/09/27 06:09:17;;;;;;;1.70;0.88;;;;;;;7.91;100.00;99803.72;5036730;28;20050;-79
2022/09/27 06:11:46;;;;;;;7.30;1.30;;;;;;;7.96;100.00;99795.91;5053016;28;20462;-78
2022/09/27 06:14:15;;;;;;;1.95;0.80;;;;;;;8.00;100.00;99793.81;5036809;28;20053;-79
2022/09/27 06:16:53;;;;;;;2.63;1.25;;;;;;;8.13;100.00;99782.31;5053649;28;20490;-81
2022/09/27 06:19:23;;;;;;;1.60;0.90;;;;;;;8.19;100.00;99789.25;5036660;28;20153;-80
2022/09/27 06:21:49;;;;;;;2.78;1.00;;;;;;;8.23;100.00;99799.69;5020191;28;20104;-88
2022/09/27 06:24:16;;;;;;;4.65;0.93;;;;;;;8.22;100.00;99812.22;5037904;28;20053;-81
2022/09/27 06:26:45;;;;;;;2.30;0.82;;;;;;;8.18;100.00;99816.94;5019510;28;20472;-81
2022/09/27 06:29:11;;;;;;;2.40;0.93;;;;;;;8.15;100.00;99809.88;5037429;28;20086;-81
2022/09/27 06:31:44;;;;;;;1.52;0.70;;;;;;;8.13;100.00;99814.88;5052217;28;20046;-81
2022/09/27 06:34:20;;;;;;;3.60;0.85;;;;;;;8.14;100.00;99810.31;5036188;28;20046;-82
2022/09/27 06:36:49;;;;;;;2.03;0.82;;;;;;;8.17;100.00;99815.47;5053128;28;20053;-81
2022/09/27 06:39:17;;;;;;;3.63;0.95;;;;;;;8.16;100.00;99810.59;5036909;28;20054;-80
2022/09/27 06:41:59;;;;;;;1.50;0.88;;;;;;;8.17;100.00;99823.41;5050943;28;20049;-86
2022/09/27 06:44:48;;;;;;;2.70;0.98;;;;;;;8.21;100.00;99812.66;5032718;28;20060;-83
2022/09/27 06:47:41;;;;;;;1.15;0.70;;;;;;;8.26;100.00;99817.38;5045432;28;20050;-81
2022/09/27 06:50:33;;;;;;;2.05;0.57;;;;;;;8.33;100.00;99819.75;5036824;28;20133;-81
2022/09/27 06:53:00;;;;;;;2.25;0.50;;;;;;;8.41;100.00;99820.88;5050111;28;20049;-82
2022/09/27 06:55:26;;;;;;;6.15;0.80;;;;;;;8.48;100.00;99831.19;5049858;28;20053;-82
2022/09/27 07:00:52;;;;;;;3.13;0.90;;;;;;;8.51;100.00;99842.81;5033040;28;20057;-82
2022/09/27 07:03:49;;;;;;;1.85;0.65;;;;;;;8.48;100.00;99844.44;5033618;28;20054;-81
2022/09/27 07:06:38;;;;;;;4.07;1.50;;;;;;;8.43;100.00;99839.72;5049328;28;20057;-80
2022/09/27 07:09:16;;;;;;;3.75;0.93;;;;;;;8.43;100.00;99837.09;5018819;28;20527;-84
2022/09/27 07:11:44;;;;;;;3.72;1.13;;;;;;;8.45;100.00;99833.97;5049556;28;20080;-82
2022/09/27 07:14:12;;;;;;;5.45;2.95;;;;;;;8.46;100.00;99836.19;5017006;28;20108;-81
2022/09/27 07:16:39;;;;;;;4.82;1.58;;;;;;;8.51;100.00;99838.25;5032312;28;20050;-82
2022/09/27 07:19:06;;;;;;;4.65;0.90;;;;;;;8.56;100.00;99844.88;5032973;28;20468;-82
2022/09/27 07:21:33;;;;;;;5.68;1.02;;;;;;;8.59;100.00;99836.75;5049703;28;20136;-85
2022/09/27 07:24:00;;;;;;;6.07;0.80;;;;;;;8.67;100.00;99840.56;5017035;28;20145;-86
2022/09/27 07:26:26;;;;;;;4.05;0.70;;;;;;;8.74;100.00;99844.09;5049483;28;20077;-88
2022/09/27 07:28:53;;;;;;;11.43;0.75;;;;;;;8.80;100.00;99848.31;5019346;28;20062;-86
2022/09/27 07:31:23;;;;;;;8.90;1.20;;;;;;;8.85;100.00;99847.72;5018014;28;20045;-83
2022/09/27 07:33:51;;;;;;;5.05;0.85;;;;;;;8.90;100.00;99857.72;5024213;28;20959;-86
2022/09/27 07:36:18;;;;;;;4.15;1.23;;;;;;;8.94;100.00;99860.94;5035544;28;20057;-82
2022/09/27 07:38:45;;;;;;;1.73;0.57;;;;;;;9.01;100.00;99865.94;5034393;28;20084;-88
2022/09/27 07:41:14;;;;;;;4.32;0.90;;;;;;;9.05;100.00;99857.81;5053277;28;20109;-86
2022/09/27 07:43:43;;;;;;;2.72;0.82;;;;;;;9.09;100.00;99861.03;5019102;28;20060;-87
2022/09/27 07:46:12;;;;;;;2.80;0.65;;;;;;;9.14;100.00;99867.66;5016321;28;20046;-81
2022/09/27 07:49:05;;;;;;;3.42;0.90;;;;;;;9.12;100.00;99862.81;5030920;28;20050;-85
2022/09/27 07:51:56;;;;;;;2.65;0.98;;;;;;;9.09;100.00;99862.97;5032741;28;20050;-85
2022/09/27 07:54:31;;;;;;;2.38;1.10;;;;;;;9.10;100.00;99867.09;5048899;28;20056;-85
2022/09/27 07:57:23;;;;;;;3.63;1.42;;;;;;;9.07;100.00;99865.34;5049569;28;20050;-87
2022/09/27 07:59:51;;;;;;;5.05;1.40;;;;;;;9.11;100.00;99871.22;5048412;28;20447;-79
2022/09/27 08:02:23;;;;;;;3.38;1.10;;;;;;;9.12;100.00;99870.78;5049246;28;20051;-79
2022/09/27 08:04:51;;;;;;;3.60;1.30;;;;;;;9.15;100.00;99871.78;5048432;28;20054;-84
2022/09/27 08:07:18;;;;;;;6.13;1.17;;;;;;;9.19;100.00;99870.44;5016540;28;20218;-81
2022/09/27 08:09:48;;;;;;;4.30;1.23;;;;;;;9.23;100.00;99870.25;4996393;28;20134;-86
2022/09/27 08:12:16;;;;;;;2.13;0.95;;;;;;;9.30;100.00;99875.25;4995928;28;20081;-84
2022/09/27 08:14:43;;;;;;;3.65;1.02;;;;;;;9.36;100.00;99874.19;4995470;28;20050;-77
2022/09/27 08:17:15;;;;;;;4.97;1.10;;;;;;;9.40;100.00;99873.28;4995972;28;20082;-77
2022/09/27 08:20:04;;;;;;;1.52;1.00;;;;;;;9.42;100.00;99882.25;5013107;28;20766;-77
2022/09/27 08:22:51;;;;;;;5.35;1.55;;;;;;;9.54;100.00;99881.31;5012452;28;20058;-78
2022/09/27 08:25:27;;;;;;;8.43;1.40;;;;;;;9.60;100.00;99887.44;4995634;28;20086;-77
2022/09/27 08:28:07;;;;;;;;;;;;;;;9.71;100.00;99889.59;4996135;28;20078;-77
2022/09/27 08:30:49;;;;;;;2.65;0.80;;;;;;;9.75;100.00;99878.81;5012054;28;19934;-78
2022/09/27 08:33:18;;;;;;;7.32;1.05;;;;;;;9.79;100.00;99882.03;4995685;28;20141;-78
2022/09/27 08:35:45;;;;;;;4.20;1.55;;;;;;;9.86;100.00;99884.34;4995242;28;20133;-78
2022/09/27 08:38:12;;;;;;;2.47;1.00;;;;;;;9.93;100.00;99894.63;5013566;28;20101;-78
2022/09/27 08:40:50;;;;;;;2.55;1.27;;;;;;;9.98;100.00;99886.03;5028101;28;20041;-77
2022/09/27 08:43:27;;;;;;;4.13;1.42;;;;;;;9.95;100.00;99890.34;5032803;28;20100;-78
2022/09/27 08:45:58;;;;;;;5.88;1.38;;;;;;;9.88;100.00;99903.97;5015124;28;20045;-85
2022/09/27 08:48:27;;;;;;;3.53;1.40;;;;;;;9.80;100.00;99910.06;5031578;28;20053;-78
2022/09/27 08:50:55;;;;;;;2.75;1.40;;;;;;;9.75;100.00;99919.41;5032916;28;20042;-79
2022/09/27 08:53:31;;;;;;;5.30;1.70;;;;;;;9.75;100.00;99926.66;5031625;28;20053;-80
2022/09/27 08:56:02;;;;;;;5.85;1.23;;;;;;;9.70;100.00;99917.38;5031821;28;20047;-80
2022/09/27 08:59:02;;;;;;;1.75;1.40;;;;;;;9.69;100.00;99927.25;5014431;28;20058;-80
2022/09/27 09:01:33;;;;;;;4.80;1.10;;;;;;;9.61;100.00;99914.75;5014910;28;20420;-80
2022/09/27 09:04:13;;;;;;;5.78;1.13;;;;;;;9.51;100.00;99908.06;5031118;28;20056;-80
2022/09/27 09:06:58;;;;;;;3.58;0.80;;;;;;;9.46;100.00;99909.41;5012248;28;20153;-79
2022/09/27 09:09:56;;;;;;;2.15;0.80;;;;;;;9.47;100.00;99902.91;5014121;28;20109;-78
2022/09/27 09:12:48;;;;;;;2.25;0.70;;;;;;;9.56;100.00;99907.44;5014484;28;20469;-79
2022/09/27 09:15:55;;;;;;;2.55;1.02;;;;;;;9.69;100.00;99906.00;5031436;28;20045;-79
2022/09/27 09:18:56;;;;;;;0.95;0.68;;;;;;;9.73;100.00;99913.06;5031203;28;20128;-79
2022/09/27 09:21:47;;;;;;;2.88;1.67;;;;;;;9.77;100.00;99913.63;5014313;28;20078;-79
2022/09/27 09:24:40;;;;;;;2.33;1.30;;;;;;;9.63;99.61;99915.03;5015192;28;20145;-79
2022/09/27 09:27:15;;;;;;;2.67;0.68;;;;;;;9.56;99.79;99907.44;5031208;28;20050;-79
2022/09/27 09:30:06;;;;;;;2.88;1.10;;;;;;;9.47;99.21;99916.19;5030870;28;20517;-79
2022/09/27 09:33:14;;;;;;;5.75;3.55;;;;;;;9.43;99.51;99922.84;5014317;28;20057;-78
2022/09/27 09:35:51;;;;;;;2.83;2.50;;;;;;;9.38;99.89;99924.19;5014127;28;20100;-79
2022/09/27 09:38:26;;;;;;;1.98;1.70;;;;;;;9.44;99.92;99919.75;5030912;28;20132;-79
2022/09/27 09:41:03;;;;;;;4.35;1.13;;;;;;;9.47;99.71;99920.75;5013951;28;20054;-79
2022/09/27 09:43:36;;;;;;;1.95;0.80;;;;;;;9.45;99.30;99920.47;5014557;28;20057;-79
2022/09/27 09:46:11;;;;;;;1.70;0.63;;;;;;;9.46;99.54;99912.06;5030598;28;20050;-83
2022/09/27 09:48:48;;;;;;;4.15;1.50;;;;;;;9.54;99.66;99921.16;4997958;28;20108;-77
2022/09/27 09:51:21;;;;;;;2.40;1.23;;;;;;;9.54;99.55;99929.13;5014771;28;20050;-83
2022/09/27 09:53:56;;;;;;;2.38;2.13;;;;;;;9.56;99.15;99932.09;5014088;28;20054;-78
2022/09/27 09:56:43;;;;;;;2.33;1.90;;;;;;;9.58;98.84;99937.69;5013662;28;20048;-78
2022/09/27 09:59:16;;;;;;;6.80;3.97;;;;;;;9.56;98.84;99929.44;5032407;28;20045;-78
2022/09/27 10:01:49;;;;;;;5.00;2.17;;;;;;;9.59;99.10;99939.16;5030684;28;20045;-78
2022/09/27 10:04:21;;;;;;;2.28;1.45;;;;;;;9.73;99.31;99942.31;5032159;28;20065;-78
2022/09/27 10:06:51;;;;;;;2.45;1.15;;;;;;;9.85;98.33;99931.47;4997541;28;20148;-81
2022/09/27 10:09:26;;;;;;;2.97;2.05;;;;;;;9.89;98.32;99939.25;5014205;28;20133;-78
2022/09/27 10:12:13;;;;;;;4.82;3.50;;;;;;;9.90;98.52;99936.16;5027422;28;20498;-77
2022/09/27 10:14:45;;;;;;;3.30;3.03;;;;;;;9.93;98.20;99931.84;5013890;28;20054;-78
2022/09/27 10:17:17;;;;;;;4.47;3.88;;;;;;;9.92;97.67;99931.13;5016081;28;20054;-78
2022/09/27 10:19:44;;;;;;;5.05;4.55;;;;;;;9.99;97.85;99924.72;5017476;28;20510;-76
2022/09/27 10:22:38;;;;;;;3.03;1.90;;;;;;;10.04;98.05;99932.06;5017526;28;20050;-77
2022/09/27 10:25:26;;;;;;;2.78;1.50;;;;;;;10.01;98.19;99932.97;5033283;28;20050;-78
2022/09/27 10:28:00;;;;;;;3.33;1.38;;;;;;;9.95;97.43;99929.47;5017509;28;20053;-79
2022/09/27 10:30:33;;;;;;;1.55;0.65;;;;;;;9.88;96.36;99927.16;5017200;28;20046;-78
2022/09/27 10:33:17;;;;;;;1.23;1.00;;;;;;;9.93;97.93;99931.84;5017389;28;20050;-80
2022/09/27 10:35:49;;;;;;;1.80;1.08;;;;;;;10.01;97.45;99919.66;5017001;28;20061;-78
2022/09/27 10:38:32;;;;;;;4.35;0.90;;;;;;;10.10;98.03;99927.56;5001496;28;20050;-79
2022/09/27 10:41:40;;;;;;;2.97;1.30;;;;;;;10.22;98.20;99925.91;5033769;28;20075;-78
2022/09/27 10:44:21;;;;;;;2.40;1.00;;;;;;;10.30;97.39;99922.44;5032739;28;20578;-82
2022/09/27 10:47:06;;;;;;;1.20;0.63;;;;;;;10.33;97.13;99921.53;5017266;28;20136;-80
2022/09/27 10:49:52;;;;;;;3.15;0.82;;;;;;;10.45;97.18;99921.69;5033333;28;20133;-79
2022/09/27 10:52:48;;;;;;;0.73;0.47;;;;;;;10.59;96.66;99926.31;5033184;28;20151;-79
2022/09/27 10:55:24;;;;;;;1.95;0.95;;;;;;;10.65;96.38;99924.47;5000336;28;20062;-79
2022/09/27 10:57:54;;;;;;;3.47;1.13;;;;;;;10.74;96.89;99924.38;5000741;28;20050;-78
2022/09/27 11:00:25;;;;;;;3.75;0.75;;;;;;;10.82;96.56;99928.13;5016839;28;20133;-79
2022/09/27 11:02:56;;;;;;;3.88;0.68;;;;;;;10.81;95.27;99931.25;5016817;28;20053;-78
2022/09/27 11:05:26;;;;;;;2.42;0.70;;;;;;;10.74;94.46;99932.38;5016666;28;20054;-79
2022/09/27 11:07:56;;;;;;;1.55;0.38;;;;;;;10.77;95.70;99933.38;5033798;28;20081;-78
2022/09/27 11:10:37;;;;;;;2.33;0.82;;;;;;;10.75;94.00;99930.44;5016400;28;20049;-78
2022/09/27 11:13:15;;;;;;;1.75;0.63;;;;;;;10.74;94.11;99939.63;5016788;28;20076;-78
2022/09/27 11:16:10;;;;;;;0.65;0.57;;;;;;;10.66;95.15;99929.34;5016339;28;20050;-78
2022/09/27 11:19:12;;;;;;;2.72;0.73;;;;;;;10.58;93.97;99933.56;5016164;28;20057;-78
2022/09/27 11:22:38;;;;;;;1.67;0.70;;;;;;;10.57;93.43;99939.34;5000269;28;20503;-78
2022/09/27 11:25:38;;;;;;;2.70;0.55;;;;;;;10.57;94.17;99939.34;4953105;28;20146;-79
2022/09/27 11:28:22;;;;;;;3.20;0.85;;;;;;;10.55;94.29;99944.38;4936602;28;20055;-80
2022/09/27 11:30:50;;;;;;;4.20;0.82;;;;;;;10.55;95.00;99936.41;4937229;28;20056;-80
2022/09/27 11:34:31;;;;;;;2.75;1.00;;;;;;;10.51;94.59;99936.56;4937225;28;20192;-78
2022/09/27 11:37:09;;;;;;;6.55;5.47;;;;;;;10.43;94.91;99943.44;4879626;29;20053;-76
2022/09/27 11:39:42;;;;;;;1.85;0.75;;;;;;;10.45;94.05;99946.38;4895808;29;20049;-79
2022/09/27 11:42:27;;;;;;;3.65;0.90;;;;;;;10.47;94.15;99944.00;4895827;29;20141;-78
2022/09/27 11:45:29;;;;;;;2.85;0.60;;;;;;;10.50;93.44;99947.66;4895828;29;20057;-79
2022/09/27 11:48:19;;;;;;;2.03;0.43;;;;;;;10.52;93.39;99945.28;4895783;29;20061;-78
2022/09/27 11:51:25;;;;;;;1.60;0.60;;;;;;;10.59;93.04;99945.66;4895881;29;20053;-79
2022/09/27 11:54:04;;;;;;;1.00;0.70;;;;;;;10.59;93.50;99944.94;4895385;29;20140;-79
2022/09/27 11:56:56;;;;;;;1.60;0.73;;;;;;;10.64;93.63;99937.03;4942019;28;20556;-79
2022/09/27 11:59:41;;;;;;;2.22;0.60;;;;;;;10.65;93.96;99930.53;4971834;28;20493;-79
2022/09/27 12:02:33;;;;;;;1.27;0.47;;;;;;;10.72;93.74;99926.03;4963550;28;20148;-78
2022/09/27 12:05:30;;;;;;;2.60;0.70;;;;;;;10.66;92.88;99928.59;4961380;28;20063;-79
2022/09/27 12:08:31;;;;;;;0.50;0.50;;;;;;;10.64;93.03;99929.06;4981740;28;20517;-79
2022/09/27 12:11:36;;;;;;;1.15;0.45;;;;;;;10.53;93.23;99933.44;5027146;28;20049;-79
2022/09/27 12:14:32;;;;;;;0.70;0.50;;;;;;;10.40;93.03;99931.03;5051990;28;20145;-79
2022/09/27 12:17:04;;;;;;;1.05;0.60;;;;;;;10.44;92.62;99925.53;5035593;28;20056;-78
2022/09/27 12:19:49;;;;;;;0.40;0.40;;;;;;;10.38;91.87;99930.78;5035179;28;20481;-78
2022/09/27 12:22:34;;;;;;;1.00;0.30;;;;;;;10.39;92.83;99942.16;5034119;28;20049;-79
2022/09/27 12:25:29;;;;;;;0.73;0.60;;;;;;;10.39;92.96;99944.84;5035085;28;20483;-79
2022/09/27 12:28:09;;;;;;;1.10;0.52;;;;;;;10.33;92.65;99942.06;5034158;28;20057;-79